Time;durP1;ratioP1;P1;durP2;ratioP2;P2;SDS_P1;SDS_P2;PMS_P1;PMS_P2;Temp;Humidity;BMP_temperature;BMP_pressure;BME280_temperature;BME280_humidity;BME280_pressure;Samples;Min_cycle;Max_cycle;Signal;HPM_P1;HPM_P2
2022/09/08 00:06:46;;;;;;;12.80;11.13;;;;;;;24.34;50.60;100126.03;20666884;28;20052;-73
2022/09/08 00:16:47;;;;;;;15.45;11.68;;;;;;;24.32;50.92;100121.88;20672109;28;20524;-73
2022/09/08 00:26:47;;;;;;;13.50;11.73;;;;;;;24.27;50.87;100101.13;20672100;28;20045;-73
2022/09/08 00:36:48;;;;;;;13.23;11.63;;;;;;;24.25;51.06;100088.03;20669326;28;20045;-74
2022/09/08 00:46:50;;;;;;;12.85;11.30;;;;;;;24.23;50.97;100071.50;20667010;28;20092;-73
2022/09/08 00:56:54;;;;;;;12.63;11.32;;;;;;;24.17;51.01;100077.38;20669766;28;20042;-73
2022/09/08 01:17:31;;;;;;;13.77;12.43;;;;;;;24.11;51.50;100096.47;20668112;28;20038;-73
2022/09/08 01:27:32;;;;;;;13.50;12.18;;;;;;;24.07;51.71;100069.47;20663875;28;20168;-73
2022/09/08 01:37:33;;;;;;;16.20;12.63;;;;;;;24.01;51.65;100066.56;20664352;28;20485;-73
2022/09/08 01:47:33;;;;;;;14.13;11.98;;;;;;;23.96;51.90;100074.94;20677977;28;20045;-73
2022/09/08 01:57:34;;;;;;;13.73;12.13;;;;;;;23.91;52.02;100077.16;20674792;28;20038;-73
2022/09/08 02:07:36;;;;;;;13.82;12.43;;;;;;;23.89;52.33;100068.53;20681335;28;20064;-73
2022/09/08 02:17:37;;;;;;;16.10;12.73;;;;;;;23.83;52.38;100073.41;20678653;28;20361;-73
2022/09/08 02:27:37;;;;;;;13.68;12.38;;;;;;;23.78;52.44;100073.03;20689336;28;20069;-73
2022/09/08 02:37:37;;;;;;;14.65;13.02;;;;;;;23.75;52.55;100075.13;20675973;28;20040;-73
2022/09/08 02:47:39;;;;;;;14.60;12.75;;;;;;;23.70;52.58;100066.78;20676980;28;20133;-73
2022/09/08 02:57:39;;;;;;;14.77;12.67;;;;;;;23.68;52.59;100061.66;20683936;28;20069;-74
2022/09/08 03:07:40;;;;;;;14.18;12.68;;;;;;;23.62;52.82;100063.06;20676930;28;20053;-75
2022/09/08 03:17:41;;;;;;;14.35;12.80;;;;;;;23.59;52.80;100052.75;20680585;28;20049;-73
2022/09/08 03:27:41;;;;;;;15.38;13.43;;;;;;;23.55;52.83;100050.56;20676049;28;20093;-73
2022/09/08 03:37:43;;;;;;;15.95;13.18;;;;;;;23.54;52.93;100055.00;20676934;28;20041;-73
2022/09/08 03:47:44;;;;;;;15.33;12.83;;;;;;;23.53;53.24;100061.25;20671019;28;21735;-73
2022/09/08 03:57:45;;;;;;;20.43;13.73;;;;;;;23.48;52.99;100090.75;20668718;28;20517;-73
2022/09/08 04:07:45;;;;;;;17.40;13.65;;;;;;;23.49;52.93;100088.94;20676858;28;20084;-73
2022/09/08 04:17:46;;;;;;;16.92;13.13;;;;;;;23.47;52.92;100090.88;20670705;28;20048;-73
2022/09/08 04:27:46;;;;;;;18.70;13.25;;;;;;;23.41;52.80;100108.16;20693847;28;20471;-76
2022/09/08 04:37:47;;;;;;;21.00;14.27;;;;;;;23.37;53.18;100084.78;20688098;28;20041;-76
2022/09/08 04:47:47;;;;;;;18.05;13.93;;;;;;;23.37;53.17;100074.22;20677269;28;20049;-77
2022/09/08 04:57:47;;;;;;;15.68;12.65;;;;;;;23.28;53.01;100075.91;20680673;28;20076;-74
2022/09/08 05:07:50;;;;;;;14.63;13.13;;;;;;;23.15;53.43;100097.28;20671508;28;20041;-76
2022/09/08 05:17:51;;;;;;;17.00;13.75;;;;;;;23.20;53.32;100100.34;20676914;28;20517;-75
2022/09/08 05:27:54;;;;;;;15.73;13.43;;;;;;;23.08;53.33;100099.63;20694988;28;20068;-74
2022/09/08 05:37:54;;;;;;;17.95;13.13;;;;;;;23.09;53.27;100098.66;20687900;28;20046;-73
2022/09/08 05:47:54;;;;;;;20.25;14.10;;;;;;;23.10;53.15;100110.06;20687253;28;20046;-73
2022/09/08 05:57:56;;;;;;;18.20;12.63;;;;;;;23.11;52.79;100091.44;20693807;28;20038;-74
2022/09/08 06:07:57;;;;;;;24.23;11.60;;;;;;;23.15;52.28;100097.28;20694188;28;20061;-73
2022/09/08 06:18:01;;;;;;;14.67;10.83;;;;;;;23.28;52.09;100087.28;20690131;28;21976;-74
2022/09/08 06:28:38;;;;;;;12.10;9.88;;;;;;;23.47;52.05;100085.59;20680413;28;20046;-74
2022/09/08 06:38:50;;;;;;;12.07;9.50;;;;;;;23.58;51.99;100069.59;20701447;28;20141;-74
2022/09/08 06:48:52;;;;;;;11.73;9.35;;;;;;;23.72;51.71;100067.50;20704438;28;20394;-73
2022/09/08 06:58:55;;;;;;;;;;;;;;;23.76;51.76;100040.59;20698737;28;20045;-72
2022/09/08 07:09:20;;;;;;;11.15;8.80;;;;;;;23.91;51.65;100035.69;20695150;28;19933;-76
2022/09/08 07:19:33;;;;;;;9.95;8.95;;;;;;;24.02;51.73;100029.38;20690152;28;20157;-74
2022/09/08 07:29:47;;;;;;;11.13;8.30;;;;;;;24.08;51.68;100035.91;20705252;28;20081;-74
2022/09/08 07:40:18;;;;;;;8.95;7.97;;;;;;;24.12;51.65;100039.94;20706432;28;20388;-74
2022/09/08 07:50:53;;;;;;;9.67;8.50;;;;;;;24.19;51.53;100038.34;20709443;28;20048;-74
2022/09/08 08:00:59;;;;;;;8.98;7.63;;;;;;;24.23;51.12;100046.84;20713002;28;20045;-74
2022/09/08 08:11:06;;;;;;;11.82;7.78;;;;;;;24.26;51.29;100049.19;20700648;28;20050;-74
2022/09/08 08:21:16;;;;;;;8.65;7.75;;;;;;;24.30;51.24;100055.84;20703068;28;20144;-74
2022/09/08 08:31:32;;;;;;;7.82;7.03;;;;;;;24.34;51.18;100061.69;20711705;28;20042;-74
2022/09/08 08:42:01;;;;;;;7.90;6.68;;;;;;;24.37;51.27;100056.09;20702400;28;20119;-73
2022/09/08 08:52:10;;;;;;;9.40;7.18;;;;;;;24.44;51.25;100057.19;20700399;28;20046;-74
2022/09/08 09:02:28;;;;;;;7.78;6.97;;;;;;;24.48;50.91;100033.91;20702335;28;20042;-74
2022/09/08 09:13:06;;;;;;;7.78;7.03;;;;;;;24.51;50.96;100023.00;20700580;28;20046;-74
2022/09/08 09:23:51;;;;;;;9.18;6.72;;;;;;;24.52;50.90;99998.19;20715723;28;20410;-74
2022/09/08 09:35:03;;;;;;;7.43;6.60;;;;;;;24.56;50.71;99989.81;20679317;28;20052;-74
2022/09/08 09:45:24;;;;;;;8.13;6.90;;;;;;;24.62;50.93;99994.50;20620016;28;20050;-74
2022/09/08 09:55:39;;;;;;;7.53;6.72;;;;;;;24.68;50.74;99984.31;20680980;28;20045;-74
2022/09/08 10:06:04;;;;;;;7.25;6.55;;;;;;;24.72;50.51;99957.38;20671094;28;20042;-74
2022/09/08 10:16:41;;;;;;;8.02;6.70;;;;;;;24.76;50.55;99949.97;20696522;28;20067;-74
2022/09/08 10:27:20;;;;;;;7.38;6.68;;;;;;;24.79;50.47;99941.72;20698041;28;20046;-74
2022/09/08 10:37:33;;;;;;;6.82;6.13;;;;;;;24.86;50.41;99934.00;20707070;28;20038;-75
2022/09/08 10:47:33;;;;;;;7.03;6.32;;;;;;;24.92;50.31;99928.91;20695282;28;20057;-75
2022/09/08 10:57:51;;;;;;;7.20;6.53;;;;;;;24.97;50.35;99946.16;20699260;28;20046;-75
2022/09/08 11:08:17;;;;;;;7.75;6.95;;;;;;;25.02;50.18;99926.16;20694719;28;20046;-75
2022/09/08 11:18:49;;;;;;;7.25;6.55;;;;;;;25.07;50.13;99929.19;20698919;28;20084;-74
2022/09/08 11:29:05;;;;;;;7.40;6.40;;;;;;;25.16;50.17;99921.25;20693660;28;20045;-74
2022/09/08 11:39:38;;;;;;;6.85;6.25;;;;;;;25.19;50.10;99932.38;20685945;28;20962;-74
2022/09/08 11:50:07;;;;;;;6.85;6.25;;;;;;;25.26;49.83;99941.38;20720254;28;20550;-74
2022/09/08 12:00:07;;;;;;;6.78;6.07;;;;;;;25.32;49.86;99917.91;20690855;28;20044;-74
2022/09/08 12:10:32;;;;;;;7.25;5.93;;;;;;;25.36;50.43;99925.34;20681988;28;20046;-75
2022/09/08 12:20:39;;;;;;;6.80;5.60;;;;;;;25.46;50.14;99911.19;20683480;28;20439;-74
2022/09/08 12:30:46;;;;;;;5.60;4.97;;;;;;;25.51;49.85;99893.84;20691388;28;20042;-74
2022/09/08 12:41:07;;;;;;;6.35;5.15;;;;;;;25.55;50.14;99889.06;20676336;28;20054;-74
2022/09/08 12:51:36;;;;;;;6.07;4.70;;;;;;;25.57;50.54;99882.59;20680615;28;20050;-74
2022/09/08 13:01:56;;;;;;;6.45;5.05;;;;;;;25.61;50.92;99864.53;20707003;28;20050;-74
2022/09/08 13:12:40;;;;;;;5.35;4.68;;;;;;;25.63;50.23;99864.38;20680533;28;20052;-74
2022/09/08 13:23:00;;;;;;;4.68;4.28;;;;;;;25.67;50.48;99845.34;20686995;28;20077;-73
2022/09/08 13:33:29;;;;;;;6.32;4.32;;;;;;;25.66;50.51;99834.88;20668004;28;20049;-75
2022/09/08 13:43:45;;;;;;;10.90;4.43;;;;;;;25.66;50.59;99818.97;20674833;28;20042;-76
2022/09/08 13:53:55;;;;;;;5.53;4.40;;;;;;;25.63;50.30;99821.97;20702653;28;20041;-76
2022/09/08 14:03:58;;;;;;;6.37;4.27;;;;;;;25.61;50.42;99815.97;20688216;28;20515;-76
2022/09/08 14:14:13;;;;;;;4.40;4.00;;;;;;;25.57;50.34;99802.22;20701202;28;20112;-76
2022/09/08 14:24:19;;;;;;;5.05;3.70;;;;;;;25.54;50.21;99787.47;20716615;28;20056;-76
2022/09/08 14:34:40;;;;;;;4.32;3.40;;;;;;;25.52;50.37;99770.06;20706638;28;20046;-76
2022/09/08 14:45:05;;;;;;;3.90;3.53;;;;;;;25.50;50.13;99758.78;20697240;28;20054;-76
2022/09/08 14:55:27;;;;;;;5.43;3.40;;;;;;;25.49;50.42;99771.22;20702231;28;20034;-76
2022/09/08 15:05:31;;;;;;;4.72;3.60;;;;;;;25.49;50.60;99824.25;20692993;28;20539;-74
2022/09/08 15:15:36;;;;;;;5.75;3.72;;;;;;;25.50;51.08;99815.31;20692100;28;20161;-73
2022/09/08 15:25:56;;;;;;;4.70;3.33;;;;;;;25.46;51.15;99836.97;20709580;28;20393;-74
2022/09/08 15:36:04;;;;;;;5.00;3.67;;;;;;;25.46;50.91;99834.34;20696127;28;20056;-74
2022/09/08 15:46:28;;;;;;;6.68;3.38;;;;;;;25.52;52.17;99817.78;20686134;28;20496;-73
2022/09/08 15:57:05;;;;;;;14.90;3.88;;;;;;;25.49;52.45;99818.94;20685516;28;20050;-72
2022/09/08 16:07:16;;;;;;;11.80;3.55;;;;;;;25.49;52.89;99818.94;20682568;28;20500;-74
2022/09/08 16:17:19;;;;;;;9.90;2.00;;;;;;;25.43;47.85;99819.59;20681795;28;20041;-74
2022/09/08 16:27:20;;;;;;;5.43;1.52;;;;;;;25.28;45.75;99815.84;20672135;28;20096;-73
2022/09/08 16:37:33;;;;;;;4.82;1.60;;;;;;;25.17;46.08;99812.50;20673282;28;20127;-74
2022/09/08 16:47:56;;;;;;;4.32;1.55;;;;;;;25.17;46.13;99816.97;20659516;28;20056;-74
2022/09/08 16:58:32;;;;;;;11.13;2.42;;;;;;;25.15;47.10;99811.81;20682148;28;20044;-72
2022/09/08 17:08:32;;;;;;;5.97;2.30;;;;;;;25.17;47.68;99801.06;20692033;28;20103;-73
2022/09/08 17:18:46;;;;;;;44.90;30.23;;;;;;;25.11;48.00;99784.00;20685207;28;20046;-75
2022/09/08 17:28:58;;;;;;;7.90;2.58;;;;;;;24.96;48.79;99798.81;20681341;28;20053;-75
2022/09/08 17:39:22;;;;;;;8.20;3.58;;;;;;;24.96;49.52;99812.06;20672631;28;20377;-75
2022/09/08 17:49:37;;;;;;;9.63;2.97;;;;;;;24.92;53.67;99816.84;20643603;28;20037;-74
2022/09/08 17:59:47;;;;;;;6.60;3.30;;;;;;;24.74;55.99;99831.00;20653211;28;20068;-75
2022/09/08 18:09:50;;;;;;;7.57;3.67;;;;;;;24.83;57.00;99837.16;20683537;28;20461;-75
2022/09/08 18:19:56;;;;;;;10.02;3.67;;;;;;;24.91;56.61;99826.63;20678840;28;20096;-75
2022/09/08 18:30:17;;;;;;;11.77;4.00;;;;;;;24.98;56.85;99828.63;20672813;28;20042;-74
2022/09/08 18:40:24;;;;;;;;;;;;;;;24.80;57.31;99886.94;20688026;28;20140;-74
2022/09/08 18:50:46;;;;;;;10.32;3.72;;;;;;;24.97;56.60;99899.31;20669711;28;19931;-74
2022/09/08 19:00:46;;;;;;;8.82;3.22;;;;;;;25.14;56.23;99889.63;20691430;28;20050;-74
2022/09/08 19:10:47;;;;;;;9.82;3.00;;;;;;;25.18;55.74;99911.34;20667546;28;20115;-76
2022/09/08 19:20:55;;;;;;;;;;;;;;;25.15;54.73;99936.34;20707789;28;20046;-76
2022/09/08 19:31:32;;;;;;;5.65;3.00;;;;;;;25.17;55.24;99976.78;20717192;28;20000;-75
2022/09/08 19:41:58;;;;;;;13.15;3.13;;;;;;;25.19;54.89;99955.41;20719631;28;20111;-76
2022/09/08 19:52:00;;;;;;;6.55;2.75;;;;;;;25.22;54.44;99931.25;20711287;28;20065;-76
2022/09/08 20:02:30;;;;;;;8.38;3.10;;;;;;;25.22;54.10;99941.88;20715963;28;20089;-76
2022/09/08 20:12:31;;;;;;;5.33;2.80;;;;;;;25.24;53.49;99967.22;20692771;28;20050;-77
2022/09/08 20:22:42;;;;;;;3.22;2.30;;;;;;;25.24;54.12;99945.16;20717671;28;20045;-77
2022/09/08 20:33:08;;;;;;;4.53;2.50;;;;;;;25.22;53.57;99932.09;20705209;28;20073;-77
2022/09/08 20:43:15;;;;;;;3.38;2.65;;;;;;;25.22;53.86;99945.34;20706594;28;20151;-76
2022/09/08 20:53:26;;;;;;;5.13;2.75;;;;;;;25.24;53.63;99985.75;20695183;28;20588;-77
2022/09/08 21:03:31;;;;;;;4.23;2.60;;;;;;;25.26;53.24;100099.53;20674972;28;20532;-77
2022/09/08 21:13:42;;;;;;;4.97;2.63;;;;;;;25.22;53.51;100051.31;20671579;28;20720;-78
2022/09/08 21:23:46;;;;;;;;;;;;;;;25.20;53.17;100060.41;20661632;28;24432;-78
2022/09/08 21:33:46;;;;;;;4.35;2.45;;;;;;;25.23;53.20;100068.88;20664939;28;20315;-78
2022/09/08 21:43:53;;;;;;;3.90;2.30;;;;;;;25.21;53.18;100065.56;20669787;28;20069;-78
2022/09/08 21:53:57;;;;;;;2.70;2.17;;;;;;;25.21;53.27;100023.16;20672397;28;20065;-78
2022/09/08 22:04:05;;;;;;;2.83;2.20;;;;;;;25.20;53.27;100024.13;20669080;28;21024;-77
2022/09/08 22:14:14;;;;;;;2.40;2.10;;;;;;;25.19;52.79;100000.44;20685675;28;20057;-76
2022/09/08 22:24:46;;;;;;;2.30;2.10;;;;;;;25.19;52.67;99984.56;20695821;28;20516;-76
2022/09/08 22:35:03;;;;;;;2.33;1.90;;;;;;;25.19;52.89;99987.19;20690012;28;20095;-76
2022/09/08 22:45:16;;;;;;;2.17;1.98;;;;;;;25.19;52.65;100000.44;20675550;28;20112;-76
2022/09/08 22:55:29;;;;;;;2.92;2.28;;;;;;;25.18;52.73;100001.44;20689471;28;20038;-78
2022/09/08 23:05:46;;;;;;;2.80;1.95;;;;;;;25.18;52.43;100020.84;20688170;28;20069;-78
2022/09/08 23:16:11;;;;;;;2.70;1.80;;;;;;;25.17;52.88;100013.00;20690319;28;20094;-78
2022/09/08 23:26:44;;;;;;;2.60;1.83;;;;;;;25.16;52.65;100014.00;20685295;28;20046;-79
2022/09/08 23:36:51;;;;;;;2.08;1.88;;;;;;;25.16;52.62;100016.66;20691252;28;20077;-78
2022/09/08 23:46:58;;;;;;;1.63;1.52;;;;;;;25.15;52.49;99996.47;20671510;28;20511;-78
2022/09/08 23:56:59;;;;;;;2.05;1.48;;;;;;;25.16;52.21;99996.28;20680531;28;20053;-79
